Ardmore Seawolf — V7JZ7 — position and weather

sailwx.info

Track history (hours):
 
Tides and Currents Weather Stations Pressure Air Temp Water Temp Dewpoint Dewpoint Depression Visibility Wind Speed Wind Dir Waves Ship Positions

Ardmore Seawolf

Last reported at 2018-Mar-31 03:27 UTC. Time now 2018-Apr-19 23:20 UTC.
Position N 35°31' W 025°48'.
Warning: this ship's position is 19 days out of date.

Length 183 m; draft 10.2 m.

Type: Tanker. MMSI: 538006131.

Date/timePositionNaut miles runAvg speedWind from/ knotsBaromVisibWave heightAir tempDewpointWater temp
2018-Mar-31 03:27N 35°31' W 025°48'1011.8
2018-Mar-31 02:39N 35°33' W 025°36'311.7
2018-Mar-31 02:25N 35°34' W 025°33'511.9
2018-Mar-31 01:58N 35°35' W 025°27'611.9
2018-Mar-31 01:27N 35°36' W 025°19'512.0
2018-Mar-31 01:00N 35°37' W 025°13'712.0
2018-Mar-31 00:24N 35°39' W 025°04'812.0
2018-Mar-30 23:42N 35°41' W 024°54'212.0
2018-Mar-30 23:30N 35°41' W 024°51'611.9
2018-Mar-30 22:59N 35°43' W 024°44'612.2
2018-Mar-30 22:30N 35°44' W 024°37'612.1
2018-Mar-30 22:00N 35°45' W 024°30'612.1
2018-Mar-30 21:30N 35°46' W 024°22'612.1
2018-Mar-30 21:00N 35°48' W 024°15'612.2
2018-Mar-30 20:30N 35°49' W 024°08'612.3
2018-Mar-30 20:00N 35°50' W 024°00'612.4
2018-Mar-30 19:30N 35°52' W 023°53'612.2
2018-Mar-30 19:00N 35°53' W 023°46'712.3
2018-Mar-30 18:25N 35°55' W 023°37'512.4
2018-Mar-30 18:00N 35°56' W 023°31'612.0
2018-Mar-30 17:30N 35°57' W 023°23'912.3
2018-Mar-30 16:47N 35°59' W 023°13'412.2
2018-Mar-30 16:27N 35°60' W 023°08'712.0
2018-Mar-30 15:53N 36°01' W 022°60'  
2018-Mar-28 11:29N 36°19' W 010°01'613.2
2018-Mar-28 11:00N 36°19' W 009°53'713.4
2018-Mar-28 10:30N 36°19' W 009°45'713.3
2018-Mar-28 10:00N 36°19' W 009°37'713.0
2018-Mar-28 09:29N 36°19' W 009°28'612.8
2018-Mar-28 09:00N 36°18' W 009°21'612.6
2018-Mar-28 08:30N 36°18' W 009°13'612.6
2018-Mar-28 08:00N 36°18' W 009°05'612.6
2018-Mar-28 07:30N 36°18' W 008°57'612.2
2018-Mar-28 07:00N 36°19' W 008°50'713.3
2018-Mar-28 06:30N 36°25' W 008°46'713.0
2018-Mar-28 05:59N 36°31' W 008°43'510.3
2018-Mar-28 05:30N 36°34' W 008°38'612.8
2018-Mar-28 05:00N 36°33' W 008°31'612.9
2018-Mar-28 04:30N 36°34' W 008°23'713.1
2018-Mar-28 03:58N 36°36' W 008°14'613.0
2018-Mar-28 03:29N 36°39' W 008°07'613.3
2018-Mar-28 03:00N 36°41' W 007°60'713.4
2018-Mar-28 02:30N 36°43' W 007°52'7 0.4
2018-Mar-27 06:38N 36°36' W 007°54'213.0
2018-Mar-27 06:30N 36°35' W 007°56'613.0
2018-Mar-27 06:00N 36°33' W 008°04'713.0
2018-Mar-27 05:30N 36°31' W 008°11'612.8
2018-Mar-27 05:00N 36°29' W 008°19'712.7
2018-Mar-27 04:27N 36°28' W 008°28'512.4
2018-Mar-27 04:00N 36°27' W 008°34'85 9.9
2018-Mar-26 19:24N 37°36' W 009°37'613.1
2018-Mar-26 18:58N 37°41' W 009°36'613.2
2018-Mar-26 18:30N 37°47' W 009°35'713.3
2018-Mar-26 18:00N 37°54' W 009°33'713.6
2018-Mar-26 17:30N 38°01' W 009°32'713.6
2018-Mar-26 17:00N 38°07' W 009°31'713.4
2018-Mar-26 16:30N 38°14' W 009°30'713.2
2018-Mar-26 16:00N 38°21' W 009°28'713.2
2018-Mar-26 15:30N 38°27' W 009°27'611.5
2018-Mar-26 15:00N 38°33' W 009°26'3 5.4
2018-Mar-26 14:30N 38°31' W 009°23'3 6.3
2018-Mar-26 14:00N 38°28' W 009°21'1 1.5
2018-Mar-26 13:30N 38°29' W 009°22'1 1.6
2018-Mar-26 13:00N 38°29' W 009°23'1 1.5
2018-Mar-26 12:30N 38°29' W 009°24'1 1.4
2018-Mar-26 12:00N 38°30' W 009°24'1 1.1
2018-Mar-26 11:30N 38°30' W 009°25'1 1.1
2018-Mar-26 11:00N 38°30' W 009°25'1 1.0
2018-Mar-26 10:29N 38°31' W 009°26'1 1.0
2018-Mar-26 10:00N 38°31' W 009°26'1 1.1
2018-Mar-26 09:31N 38°32' W 009°27'1 1.5
2018-Mar-26 09:00N 38°32' W 009°27'1 1.4
2018-Mar-26 08:30N 38°33' W 009°27'1 2.9
2018-Mar-26 08:00N 38°32' W 009°26'3 6.3
2018-Mar-26 07:30N 38°29' W 009°25'611.3
2018-Mar-26 07:00N 38°23' W 009°26'611.2
2018-Mar-26 06:30N 38°18' W 009°27'510.8
2018-Mar-26 06:00N 38°12' W 009°27'510.6
2018-Mar-26 05:30N 38°07' W 009°28'510.7
2018-Mar-26 05:00N 38°02' W 009°29'510.5
2018-Mar-26 04:30N 37°57' W 009°30'510.5
2018-Mar-26 04:00N 37°51' W 009°31'510.2
2018-Mar-26 03:30N 37°46' W 009°30'510.4
2018-Mar-26 03:00N 37°41' W 009°30'213 9.0
2018-Mar-25 03:29N 35°58' W 005°37'5 9.8
2018-Mar-25 02:59N 35°59' W 005°32'4 9.0
2018-Mar-25 02:30N 36°00' W 005°27'4 8.5
2018-Mar-25 02:00N 36°04' W 005°24'2 3.4
2018-Mar-25 01:25N 36°06' W 005°24'0 0.1
2018-Mar-25 00:58N 36°06' W 005°24'0 0.2
2018-Mar-25 00:29N 36°06' W 005°24'1 2.3
2018-Mar-25 00:00N 36°07' W 005°24'3 6.2
2018-Mar-24 23:30N 36°10' W 005°24'1 0.0
2018-Mar-23 03:47N 36°11' W 005°24'0 0.7
2018-Mar-23 03:30N 36°10' W 005°24'2 4.8
2018-Mar-23 03:00N 36°08' W 005°24'0 0.1
2018-Mar-23 02:29N 36°08' W 005°24'0 0.0
2018-Mar-23 01:59N 36°08' W 005°24'0 0.0
2018-Mar-23 01:29N 36°08' W 005°24'0 0.0
2018-Mar-23 00:56N 36°08' W 005°24'0 0.0
2018-Mar-23 00:26N 36°08' W 005°24'0 0.1
2018-Mar-22 23:56N 36°08' W 005°24'0 0.0
2018-Mar-22 23:23N 36°08' W 005°24'0 0.1
2018-Mar-22 22:56N 36°08' W 005°25'0 0.0
2018-Mar-22 22:29N 36°08' W 005°24'0 0.1
2018-Mar-22 21:59N 36°08' W 005°24'0 0.1
2018-Mar-22 21:29N 36°08' W 005°24'0 0.2
2018-Mar-22 20:59N 36°08' W 005°24'0 0.0
2018-Mar-22 20:29N 36°08' W 005°24'0 0.0
2018-Mar-22 19:59N 36°08' W 005°24'0 0.0
2018-Mar-22 19:30N 36°08' W 005°24'1 2.5
2018-Mar-22 19:00N 36°07' W 005°23'1 2.4
2018-Mar-22 18:30N 36°06' W 005°23'3 6.3
2018-Mar-22 18:00N 36°04' W 005°20'4 8.8
2018-Mar-22 17:30N 36°06' W 005°15'1 0.5
2018-Mar-22 15:27N 36°07' W 005°15'3 5.8
2018-Mar-22 14:52N 36°05' W 005°18'3 9.7
2018-Mar-22 14:30N 36°02' W 005°20'4 8.1
2018-Mar-22 14:00N 35°59' W 005°24'  
Track history (hours):
 
Tides and Currents Weather Stations Pressure Air Temp Water Temp Dewpoint Dewpoint Depression Visibility Wind Speed Wind Dir Waves Ship Positions

Ardmore Seawolf

Last reported at 2018-Mar-31 03:27 UTC. Time now 2018-Apr-19 23:20 UTC.
Position N 35°31' W 025°48'.
Warning: this ship's position is 19 days out of date.

Length 183 m; draft 10.2 m.

Type: Tanker. MMSI: 538006131.

Date/timePositionNaut miles runAvg speedWind from/ knotsBaromVisibWave heightAir tempDewpointWater temp
2018-Mar-31 03:27N 35°31' W 025°48'1011.8
2018-Mar-31 02:39N 35°33' W 025°36'311.7
2018-Mar-31 02:25N 35°34' W 025°33'511.9
2018-Mar-31 01:58N 35°35' W 025°27'611.9
2018-Mar-31 01:27N 35°36' W 025°19'512.0
2018-Mar-31 01:00N 35°37' W 025°13'712.0
2018-Mar-31 00:24N 35°39' W 025°04'812.0
2018-Mar-30 23:42N 35°41' W 024°54'212.0
2018-Mar-30 23:30N 35°41' W 024°51'611.9
2018-Mar-30 22:59N 35°43' W 024°44'612.2
2018-Mar-30 22:30N 35°44' W 024°37'612.1
2018-Mar-30 22:00N 35°45' W 024°30'612.1
2018-Mar-30 21:30N 35°46' W 024°22'612.1
2018-Mar-30 21:00N 35°48' W 024°15'612.2
2018-Mar-30 20:30N 35°49' W 024°08'612.3
2018-Mar-30 20:00N 35°50' W 024°00'612.4
2018-Mar-30 19:30N 35°52' W 023°53'612.2
2018-Mar-30 19:00N 35°53' W 023°46'712.3
2018-Mar-30 18:25N 35°55' W 023°37'512.4
2018-Mar-30 18:00N 35°56' W 023°31'612.0
2018-Mar-30 17:30N 35°57' W 023°23'912.3
2018-Mar-30 16:47N 35°59' W 023°13'412.2
2018-Mar-30 16:27N 35°60' W 023°08'712.0
2018-Mar-30 15:53N 36°01' W 022°60'  
2018-Mar-28 11:29N 36°19' W 010°01'613.2
2018-Mar-28 11:00N 36°19' W 009°53'713.4
2018-Mar-28 10:30N 36°19' W 009°45'713.3
2018-Mar-28 10:00N 36°19' W 009°37'713.0
2018-Mar-28 09:29N 36°19' W 009°28'612.8
2018-Mar-28 09:00N 36°18' W 009°21'612.6
2018-Mar-28 08:30N 36°18' W 009°13'612.6
2018-Mar-28 08:00N 36°18' W 009°05'612.6
2018-Mar-28 07:30N 36°18' W 008°57'612.2
2018-Mar-28 07:00N 36°19' W 008°50'713.3
2018-Mar-28 06:30N 36°25' W 008°46'713.0
2018-Mar-28 05:59N 36°31' W 008°43'510.3
2018-Mar-28 05:30N 36°34' W 008°38'612.8
2018-Mar-28 05:00N 36°33' W 008°31'612.9
2018-Mar-28 04:30N 36°34' W 008°23'713.1
2018-Mar-28 03:58N 36°36' W 008°14'613.0
2018-Mar-28 03:29N 36°39' W 008°07'613.3
2018-Mar-28 03:00N 36°41' W 007°60'713.4
2018-Mar-28 02:30N 36°43' W 007°52'7 0.4
2018-Mar-27 06:38N 36°36' W 007°54'213.0
2018-Mar-27 06:30N 36°35' W 007°56'613.0
2018-Mar-27 06:00N 36°33' W 008°04'713.0
2018-Mar-27 05:30N 36°31' W 008°11'612.8
2018-Mar-27 05:00N 36°29' W 008°19'712.7
2018-Mar-27 04:27N 36°28' W 008°28'512.4
2018-Mar-27 04:00N 36°27' W 008°34'85 9.9
2018-Mar-26 19:24N 37°36' W 009°37'613.1
2018-Mar-26 18:58N 37°41' W 009°36'613.2
2018-Mar-26 18:30N 37°47' W 009°35'713.3
2018-Mar-26 18:00N 37°54' W 009°33'713.6
2018-Mar-26 17:30N 38°01' W 009°32'713.6
2018-Mar-26 17:00N 38°07' W 009°31'713.4
2018-Mar-26 16:30N 38°14' W 009°30'713.2
2018-Mar-26 16:00N 38°21' W 009°28'713.2
2018-Mar-26 15:30N 38°27' W 009°27'611.5
2018-Mar-26 15:00N 38°33' W 009°26'3 5.4
2018-Mar-26 14:30N 38°31' W 009°23'3 6.3
2018-Mar-26 14:00N 38°28' W 009°21'1 1.5
2018-Mar-26 13:30N 38°29' W 009°22'1 1.6
2018-Mar-26 13:00N 38°29' W 009°23'1 1.5
2018-Mar-26 12:30N 38°29' W 009°24'1 1.4
2018-Mar-26 12:00N 38°30' W 009°24'1 1.1
2018-Mar-26 11:30N 38°30' W 009°25'1 1.1
2018-Mar-26 11:00N 38°30' W 009°25'1 1.0
2018-Mar-26 10:29N 38°31' W 009°26'1 1.0
2018-Mar-26 10:00N 38°31' W 009°26'1 1.1
2018-Mar-26 09:31N 38°32' W 009°27'1 1.5
2018-Mar-26 09:00N 38°32' W 009°27'1 1.4
2018-Mar-26 08:30N 38°33' W 009°27'1 2.9
2018-Mar-26 08:00N 38°32' W 009°26'3 6.3
2018-Mar-26 07:30N 38°29' W 009°25'611.3
2018-Mar-26 07:00N 38°23' W 009°26'611.2
2018-Mar-26 06:30N 38°18' W 009°27'510.8
2018-Mar-26 06:00N 38°12' W 009°27'510.6
2018-Mar-26 05:30N 38°07' W 009°28'510.7
2018-Mar-26 05:00N 38°02' W 009°29'510.5
2018-Mar-26 04:30N 37°57' W 009°30'510.5
2018-Mar-26 04:00N 37°51' W 009°31'510.2
2018-Mar-26 03:30N 37°46' W 009°30'510.4
2018-Mar-26 03:00N 37°41' W 009°30'213 9.0
2018-Mar-25 03:29N 35°58' W 005°37'5 9.8
2018-Mar-25 02:59N 35°59' W 005°32'4 9.0
2018-Mar-25 02:30N 36°00' W 005°27'4 8.5
2018-Mar-25 02:00N 36°04' W 005°24'2 3.4
2018-Mar-25 01:25N 36°06' W 005°24'0 0.1
2018-Mar-25 00:58N 36°06' W 005°24'0 0.2
2018-Mar-25 00:29N 36°06' W 005°24'1 2.3
2018-Mar-25 00:00N 36°07' W 005°24'3 6.2
2018-Mar-24 23:30N 36°10' W 005°24'1 0.0
2018-Mar-23 03:47N 36°11' W 005°24'0 0.7
2018-Mar-23 03:30N 36°10' W 005°24'2 4.8
2018-Mar-23 03:00N 36°08' W 005°24'0 0.1
2018-Mar-23 02:29N 36°08' W 005°24'0 0.0
2018-Mar-23 01:59N 36°08' W 005°24'0 0.0
2018-Mar-23 01:29N 36°08' W 005°24'0 0.0
2018-Mar-23 00:56N 36°08' W 005°24'0 0.0
2018-Mar-23 00:26N 36°08' W 005°24'0 0.1
2018-Mar-22 23:56N 36°08' W 005°24'0 0.0
2018-Mar-22 23:23N 36°08' W 005°24'0 0.1
2018-Mar-22 22:56N 36°08' W 005°25'0 0.0
2018-Mar-22 22:29N 36°08' W 005°24'0 0.1
2018-Mar-22 21:59N 36°08' W 005°24'0 0.1
2018-Mar-22 21:29N 36°08' W 005°24'0 0.2
2018-Mar-22 20:59N 36°08' W 005°24'0 0.0
2018-Mar-22 20:29N 36°08' W 005°24'0 0.0
2018-Mar-22 19:59N 36°08' W 005°24'0 0.0
2018-Mar-22 19:30N 36°08' W 005°24'1 2.5
2018-Mar-22 19:00N 36°07' W 005°23'1 2.4
2018-Mar-22 18:30N 36°06' W 005°23'3 6.3
2018-Mar-22 18:00N 36°04' W 005°20'4 8.8
2018-Mar-22 17:30N 36°06' W 005°15'1 0.5
2018-Mar-22 15:27N 36°07' W 005°15'3 5.8
2018-Mar-22 14:52N 36°05' W 005°18'3 9.7
2018-Mar-22 14:30N 36°02' W 005°20'4 8.1
2018-Mar-22 14:00N 35°59' W 005°24'  

Dump ship's entire track history